sensor_id;sensor_type;location;lat;lon;timestamp;P1;durP1;ratioP1;P2;durP2;ratioP2
86137;SDS011;76796;49.056;15.810;2024-03-17T00:00:04;7.80;;;4.50;;
86137;SDS011;76796;49.056;15.810;2024-03-17T00:02:31;6.57;;;4.13;;
86137;SDS011;76796;49.056;15.810;2024-03-17T00:04:57;6.85;;;4.43;;
86137;SDS011;76796;49.056;15.810;2024-03-17T00:07:23;5.85;;;3.83;;
86137;SDS011;76796;49.056;15.810;2024-03-17T00:10:01;6.60;;;4.10;;
86137;SDS011;76796;49.056;15.810;2024-03-17T00:12:31;5.00;;;3.90;;
86137;SDS011;76796;49.056;15.810;2024-03-17T00:14:57;6.13;;;3.63;;
86137;SDS011;76796;49.056;15.810;2024-03-17T00:17:23;7.00;;;4.03;;
86137;SDS011;76796;49.056;15.810;2024-03-17T00:19:48;7.10;;;4.22;;
86137;SDS011;76796;49.056;15.810;2024-03-17T00:22:14;7.05;;;4.45;;
86137;SDS011;76796;49.056;15.810;2024-03-17T00:24:43;7.07;;;4.40;;
86137;SDS011;76796;49.056;15.810;2024-03-17T00:27:16;7.03;;;4.40;;
86137;SDS011;76796;49.056;15.810;2024-03-17T00:29:42;7.22;;;4.03;;
86137;SDS011;76796;49.056;15.810;2024-03-17T00:32:08;5.78;;;3.80;;
86137;SDS011;76796;49.056;15.810;2024-03-17T00:34:33;5.75;;;3.90;;
86137;SDS011;76796;49.056;15.810;2024-03-17T00:37:00;5.45;;;3.22;;
86137;SDS011;76796;49.056;15.810;2024-03-17T00:39:30;6.13;;;3.92;;
86137;SDS011;76796;49.056;15.810;2024-03-17T00:41:57;6.65;;;3.55;;
86137;SDS011;76796;49.056;15.810;2024-03-17T00:44:32;4.68;;;3.08;;
86137;SDS011;76796;49.056;15.810;2024-03-17T00:47:04;6.13;;;4.10;;
86137;SDS011;76796;49.056;15.810;2024-03-17T00:49:31;5.03;;;2.90;;
86137;SDS011;76796;49.056;15.810;2024-03-17T00:51:57;6.50;;;3.67;;
86137;SDS011;76796;49.056;15.810;2024-03-17T00:54:22;6.03;;;3.30;;
86137;SDS011;76796;49.056;15.810;2024-03-17T00:56:48;5.03;;;3.10;;
86137;SDS011;76796;49.056;15.810;2024-03-17T00:59:14;5.85;;;2.63;;
86137;SDS011;76796;49.056;15.810;2024-03-17T01:01:46;5.68;;;3.70;;
86137;SDS011;76796;49.056;15.810;2024-03-17T01:04:12;7.05;;;3.53;;
86137;SDS011;76796;49.056;15.810;2024-03-17T01:06:38;5.93;;;3.10;;
86137;SDS011;76796;49.056;15.810;2024-03-17T01:09:06;4.38;;;3.05;;
86137;SDS011;76796;49.056;15.810;2024-03-17T01:11:39;6.93;;;3.05;;
86137;SDS011;76796;49.056;15.810;2024-03-17T01:14:05;6.80;;;3.53;;
86137;SDS011;76796;49.056;15.810;2024-03-17T01:16:37;8.15;;;3.55;;
86137;SDS011;76796;49.056;15.810;2024-03-17T01:19:11;4.78;;;3.38;;
86137;SDS011;76796;49.056;15.810;2024-03-17T01:21:37;4.82;;;3.33;;
86137;SDS011;76796;49.056;15.810;2024-03-17T01:24:03;6.45;;;3.15;;
86137;SDS011;76796;49.056;15.810;2024-03-17T01:26:30;5.95;;;3.55;;
86137;SDS011;76796;49.056;15.810;2024-03-17T01:28:56;5.22;;;3.55;;
86137;SDS011;76796;49.056;15.810;2024-03-17T01:31:22;5.32;;;2.83;;
86137;SDS011;76796;49.056;15.810;2024-03-17T01:33:47;6.25;;;3.00;;
86137;SDS011;76796;49.056;15.810;2024-03-17T01:36:19;4.13;;;3.10;;
86137;SDS011;76796;49.056;15.810;2024-03-17T01:38:45;4.07;;;2.85;;
86137;SDS011;76796;49.056;15.810;2024-03-17T01:41:11;6.10;;;2.97;;
86137;SDS011;76796;49.056;15.810;2024-03-17T01:43:39;6.95;;;3.15;;
86137;SDS011;76796;49.056;15.810;2024-03-17T01:46:05;5.40;;;2.90;;
86137;SDS011;76796;49.056;15.810;2024-03-17T01:48:37;7.45;;;3.00;;
86137;SDS011;76796;49.056;15.810;2024-03-17T01:51:02;4.93;;;2.80;;
86137;SDS011;76796;49.056;15.810;2024-03-17T01:53:34;4.28;;;2.58;;
86137;SDS011;76796;49.056;15.810;2024-03-17T01:56:00;4.68;;;3.10;;
86137;SDS011;76796;49.056;15.810;2024-03-17T01:58:32;5.43;;;2.40;;
86137;SDS011;76796;49.056;15.810;2024-03-17T02:00:58;6.65;;;3.25;;
86137;SDS011;76796;49.056;15.810;2024-03-17T02:03:24;4.72;;;2.83;;
86137;SDS011;76796;49.056;15.810;2024-03-17T02:06:04;7.10;;;2.88;;
86137;SDS011;76796;49.056;15.810;2024-03-17T02:08:50;5.22;;;3.30;;
86137;SDS011;76796;49.056;15.810;2024-03-17T02:11:28;5.50;;;3.40;;
86137;SDS011;76796;49.056;15.810;2024-03-17T02:13:55;6.90;;;3.20;;
86137;SDS011;76796;49.056;15.810;2024-03-17T02:16:22;7.55;;;3.42;;
86137;SDS011;76796;49.056;15.810;2024-03-17T02:18:48;6.63;;;3.78;;
86137;SDS011;76796;49.056;15.810;2024-03-17T02:21:15;9.23;;;4.15;;
86137;SDS011;76796;49.056;15.810;2024-03-17T02:23:42;9.13;;;4.30;;
86137;SDS011;76796;49.056;15.810;2024-03-17T02:26:08;7.65;;;3.95;;
86137;SDS011;76796;49.056;15.810;2024-03-17T02:28:41;7.85;;;3.60;;
86137;SDS011;76796;49.056;15.810;2024-03-17T02:31:07;9.63;;;4.32;;
86137;SDS011;76796;49.056;15.810;2024-03-17T02:33:35;7.22;;;4.05;;
86137;SDS011;76796;49.056;15.810;2024-03-17T02:36:02;5.90;;;3.55;;
86137;SDS011;76796;49.056;15.810;2024-03-17T02:38:35;5.75;;;3.22;;
86137;SDS011;76796;49.056;15.810;2024-03-17T02:41:21;7.43;;;4.10;;
86137;SDS011;76796;49.056;15.810;2024-03-17T02:43:54;7.53;;;3.88;;
86137;SDS011;76796;49.056;15.810;2024-03-17T02:46:26;7.85;;;3.72;;
86137;SDS011;76796;49.056;15.810;2024-03-17T02:48:53;8.13;;;3.92;;
86137;SDS011;76796;49.056;15.810;2024-03-17T02:51:19;5.38;;;3.97;;
86137;SDS011;76796;49.056;15.810;2024-03-17T02:53:47;8.27;;;4.15;;
86137;SDS011;76796;49.056;15.810;2024-03-17T02:56:14;8.32;;;4.13;;
86137;SDS011;76796;49.056;15.810;2024-03-17T02:58:42;6.43;;;3.70;;
86137;SDS011;76796;49.056;15.810;2024-03-17T03:01:15;8.30;;;4.47;;
86137;SDS011;76796;49.056;15.810;2024-03-17T03:03:41;8.75;;;4.80;;
86137;SDS011;76796;49.056;15.810;2024-03-17T03:06:07;11.23;;;5.60;;
86137;SDS011;76796;49.056;15.810;2024-03-17T03:08:41;8.68;;;4.68;;
86137;SDS011;76796;49.056;15.810;2024-03-17T03:11:08;7.47;;;4.22;;
86137;SDS011;76796;49.056;15.810;2024-03-17T03:13:40;7.30;;;4.68;;
86137;SDS011;76796;49.056;15.810;2024-03-17T03:16:07;9.07;;;4.57;;
86137;SDS011;76796;49.056;15.810;2024-03-17T03:18:41;8.38;;;4.28;;
86137;SDS011;76796;49.056;15.810;2024-03-17T03:21:09;9.55;;;5.15;;
86137;SDS011;76796;49.056;15.810;2024-03-17T03:23:34;7.35;;;3.72;;
86137;SDS011;76796;49.056;15.810;2024-03-17T03:26:02;12.00;;;5.30;;
86137;SDS011;76796;49.056;15.810;2024-03-17T03:28:32;7.47;;;4.20;;
86137;SDS011;76796;49.056;15.810;2024-03-17T03:30:59;8.75;;;4.70;;
86137;SDS011;76796;49.056;15.810;2024-03-17T03:33:25;7.35;;;4.38;;
86137;SDS011;76796;49.056;15.810;2024-03-17T03:35:57;7.80;;;4.78;;
86137;SDS011;76796;49.056;15.810;2024-03-17T03:38:24;9.30;;;5.20;;
86137;SDS011;76796;49.056;15.810;2024-03-17T03:40:50;8.52;;;4.32;;
86137;SDS011;76796;49.056;15.810;2024-03-17T03:43:17;10.70;;;4.68;;
86137;SDS011;76796;49.056;15.810;2024-03-17T03:45:43;6.75;;;4.40;;
86137;SDS011;76796;49.056;15.810;2024-03-17T03:48:22;5.43;;;3.63;;
86137;SDS011;76796;49.056;15.810;2024-03-17T03:50:48;7.85;;;4.05;;
86137;SDS011;76796;49.056;15.810;2024-03-17T03:55:49;7.55;;;4.13;;
86137;SDS011;76796;49.056;15.810;2024-03-17T03:58:15;7.97;;;3.30;;
86137;SDS011;76796;49.056;15.810;2024-03-17T04:00:41;8.65;;;3.30;;
86137;SDS011;76796;49.056;15.810;2024-03-17T04:03:07;7.13;;;3.80;;
86137;SDS011;76796;49.056;15.810;2024-03-17T04:05:34;5.72;;;3.42;;
86137;SDS011;76796;49.056;15.810;2024-03-17T04:08:00;7.05;;;3.67;;
86137;SDS011;76796;49.056;15.810;2024-03-17T04:10:33;8.55;;;3.50;;
86137;SDS011;76796;49.056;15.810;2024-03-17T04:12:59;5.18;;;2.75;;
86137;SDS011;76796;49.056;15.810;2024-03-17T04:15:24;5.32;;;2.97;;
86137;SDS011;76796;49.056;15.810;2024-03-17T04:17:50;7.82;;;3.85;;
86137;SDS011;76796;49.056;15.810;2024-03-17T04:20:16;6.85;;;3.38;;
86137;SDS011;76796;49.056;15.810;2024-03-17T04:22:44;6.55;;;3.10;;
86137;SDS011;76796;49.056;15.810;2024-03-17T04:25:10;8.50;;;3.78;;
86137;SDS011;76796;49.056;15.810;2024-03-17T04:27:43;6.55;;;3.60;;
86137;SDS011;76796;49.056;15.810;2024-03-17T04:30:09;6.78;;;3.65;;
86137;SDS011;76796;49.056;15.810;2024-03-17T04:32:37;9.63;;;4.15;;
86137;SDS011;76796;49.056;15.810;2024-03-17T04:35:03;8.98;;;4.10;;
86137;SDS011;76796;49.056;15.810;2024-03-17T04:37:30;10.23;;;4.80;;
86137;SDS011;76796;49.056;15.810;2024-03-17T04:39:56;8.70;;;4.55;;
86137;SDS011;76796;49.056;15.810;2024-03-17T04:42:22;8.43;;;3.95;;
86137;SDS011;76796;49.056;15.810;2024-03-17T04:44:55;7.88;;;4.10;;
86137;SDS011;76796;49.056;15.810;2024-03-17T04:47:23;7.30;;;3.78;;
86137;SDS011;76796;49.056;15.810;2024-03-17T04:49:55;9.85;;;4.57;;
86137;SDS011;76796;49.056;15.810;2024-03-17T04:52:22;8.35;;;4.63;;
86137;SDS011;76796;49.056;15.810;2024-03-17T04:54:48;8.13;;;4.15;;
86137;SDS011;76796;49.056;15.810;2024-03-17T04:57:13;7.55;;;4.22;;
86137;SDS011;76796;49.056;15.810;2024-03-17T04:59:39;6.63;;;3.88;;
86137;SDS011;76796;49.056;15.810;2024-03-17T05:02:12;8.23;;;4.07;;
86137;SDS011;76796;49.056;15.810;2024-03-17T05:04:37;11.23;;;4.93;;
86137;SDS011;76796;49.056;15.810;2024-03-17T05:07:03;8.25;;;4.53;;
86137;SDS011;76796;49.056;15.810;2024-03-17T05:09:31;8.80;;;4.40;;
86137;SDS011;76796;49.056;15.810;2024-03-17T05:11:56;8.75;;;4.43;;
86137;SDS011;76796;49.056;15.810;2024-03-17T05:14:22;9.05;;;4.80;;
86137;SDS011;76796;49.056;15.810;2024-03-17T05:16:49;8.35;;;4.38;;
86137;SDS011;76796;49.056;15.810;2024-03-17T05:19:22;6.70;;;4.28;;
86137;SDS011;76796;49.056;15.810;2024-03-17T05:21:48;9.57;;;4.93;;
86137;SDS011;76796;49.056;15.810;2024-03-17T05:24:14;8.50;;;4.80;;
86137;SDS011;76796;49.056;15.810;2024-03-17T05:26:40;9.20;;;4.60;;
86137;SDS011;76796;49.056;15.810;2024-03-17T05:29:10;6.35;;;3.92;;
86137;SDS011;76796;49.056;15.810;2024-03-17T05:31:36;8.13;;;5.07;;
86137;SDS011;76796;49.056;15.810;2024-03-17T05:34:05;9.57;;;5.07;;
86137;SDS011;76796;49.056;15.810;2024-03-17T05:36:42;7.40;;;4.32;;
86137;SDS011;76796;49.056;15.810;2024-03-17T05:39:07;7.78;;;4.80;;
86137;SDS011;76796;49.056;15.810;2024-03-17T05:41:33;8.15;;;4.53;;
86137;SDS011;76796;49.056;15.810;2024-03-17T05:44:00;6.68;;;3.90;;
86137;SDS011;76796;49.056;15.810;2024-03-17T05:46:35;7.03;;;4.25;;
86137;SDS011;76796;49.056;15.810;2024-03-17T05:49:01;6.93;;;4.57;;
86137;SDS011;76796;49.056;15.810;2024-03-17T05:51:31;8.27;;;4.57;;
86137;SDS011;76796;49.056;15.810;2024-03-17T05:54:03;7.35;;;4.68;;
86137;SDS011;76796;49.056;15.810;2024-03-17T05:56:33;8.70;;;4.55;;
86137;SDS011;76796;49.056;15.810;2024-03-17T05:59:00;6.95;;;4.57;;
86137;SDS011;76796;49.056;15.810;2024-03-17T06:01:28;7.63;;;4.25;;
86137;SDS011;76796;49.056;15.810;2024-03-17T06:03:54;6.75;;;3.83;;
86137;SDS011;76796;49.056;15.810;2024-03-17T06:06:19;11.02;;;4.50;;
86137;SDS011;76796;49.056;15.810;2024-03-17T06:08:45;8.23;;;4.45;;
86137;SDS011;76796;49.056;15.810;2024-03-17T06:11:18;10.15;;;4.93;;
86137;SDS011;76796;49.056;15.810;2024-03-17T06:13:43;9.00;;;4.90;;
86137;SDS011;76796;49.056;15.810;2024-03-17T06:16:09;6.38;;;3.97;;
86137;SDS011;76796;49.056;15.810;2024-03-17T06:18:34;8.57;;;4.13;;
86137;SDS011;76796;49.056;15.810;2024-03-17T06:21:00;11.70;;;6.20;;
86137;SDS011;76796;49.056;15.810;2024-03-17T06:23:26;18.70;;;8.98;;
86137;SDS011;76796;49.056;15.810;2024-03-17T06:25:52;9.00;;;4.82;;
86137;SDS011;76796;49.056;15.810;2024-03-17T06:28:28;5.85;;;3.72;;
86137;SDS011;76796;49.056;15.810;2024-03-17T06:30:58;7.97;;;4.18;;
86137;SDS011;76796;49.056;15.810;2024-03-17T06:33:25;7.97;;;5.00;;
86137;SDS011;76796;49.056;15.810;2024-03-17T06:35:53;21.27;;;5.22;;
86137;SDS011;76796;49.056;15.810;2024-03-17T06:38:19;8.80;;;4.18;;
86137;SDS011;76796;49.056;15.810;2024-03-17T06:40:48;6.82;;;3.75;;
86137;SDS011;76796;49.056;15.810;2024-03-17T06:43:15;7.55;;;3.80;;
86137;SDS011;76796;49.056;15.810;2024-03-17T06:45:59;9.18;;;3.55;;
86137;SDS011;76796;49.056;15.810;2024-03-17T06:48:39;7.82;;;4.57;;
86137;SDS011;76796;49.056;15.810;2024-03-17T06:51:05;8.48;;;4.00;;
86137;SDS011;76796;49.056;15.810;2024-03-17T06:53:31;9.05;;;3.78;;
86137;SDS011;76796;49.056;15.810;2024-03-17T06:55:57;10.15;;;3.90;;
86137;SDS011;76796;49.056;15.810;2024-03-17T06:58:25;17.23;;;8.25;;
86137;SDS011;76796;49.056;15.810;2024-03-17T07:01:00;8.45;;;5.18;;
86137;SDS011;76796;49.056;15.810;2024-03-17T07:03:31;6.13;;;3.50;;
86137;SDS011;76796;49.056;15.810;2024-03-17T07:05:58;7.07;;;3.25;;
86137;SDS011;76796;49.056;15.810;2024-03-17T07:08:31;9.07;;;3.75;;
86137;SDS011;76796;49.056;15.810;2024-03-17T07:10:58;12.02;;;4.55;;
86137;SDS011;76796;49.056;15.810;2024-03-17T07:13:34;8.70;;;3.85;;
86137;SDS011;76796;49.056;15.810;2024-03-17T07:16:10;7.50;;;3.13;;
86137;SDS011;76796;49.056;15.810;2024-03-17T07:18:35;7.05;;;4.05;;
86137;SDS011;76796;49.056;15.810;2024-03-17T07:21:03;7.47;;;3.47;;
86137;SDS011;76796;49.056;15.810;2024-03-17T07:23:31;7.15;;;3.20;;
86137;SDS011;76796;49.056;15.810;2024-03-17T07:25:58;5.18;;;2.85;;
86137;SDS011;76796;49.056;15.810;2024-03-17T07:28:25;5.57;;;2.95;;
86137;SDS011;76796;49.056;15.810;2024-03-17T07:30:55;5.05;;;3.03;;
86137;SDS011;76796;49.056;15.810;2024-03-17T07:33:29;7.90;;;3.58;;
86137;SDS011;76796;49.056;15.810;2024-03-17T07:35:55;4.88;;;2.97;;
86137;SDS011;76796;49.056;15.810;2024-03-17T07:38:25;6.97;;;3.42;;
86137;SDS011;76796;49.056;15.810;2024-03-17T07:40:56;5.93;;;2.80;;
86137;SDS011;76796;49.056;15.810;2024-03-17T07:43:27;4.30;;;3.05;;
86137;SDS011;76796;49.056;15.810;2024-03-17T07:48:52;5.57;;;3.25;;
86137;SDS011;76796;49.056;15.810;2024-03-17T07:51:18;7.40;;;3.53;;
86137;SDS011;76796;49.056;15.810;2024-03-17T07:53:45;9.27;;;3.42;;
86137;SDS011;76796;49.056;15.810;2024-03-17T07:56:13;5.03;;;2.90;;
86137;SDS011;76796;49.056;15.810;2024-03-17T07:58:41;6.03;;;3.38;;
86137;SDS011;76796;49.056;15.810;2024-03-17T08:01:12;13.75;;;6.88;;
86137;SDS011;76796;49.056;15.810;2024-03-17T08:03:40;8.85;;;3.20;;
86137;SDS011;76796;49.056;15.810;2024-03-17T08:06:16;4.72;;;2.70;;
86137;SDS011;76796;49.056;15.810;2024-03-17T08:08:41;6.30;;;2.78;;
86137;SDS011;76796;49.056;15.810;2024-03-17T08:11:07;4.43;;;2.55;;
86137;SDS011;76796;49.056;15.810;2024-03-17T08:13:34;5.43;;;2.45;;
86137;SDS011;76796;49.056;15.810;2024-03-17T08:16:01;8.48;;;2.92;;
86137;SDS011;76796;49.056;15.810;2024-03-17T08:18:30;4.95;;;2.63;;
86137;SDS011;76796;49.056;15.810;2024-03-17T08:20:57;4.10;;;2.15;;
86137;SDS011;76796;49.056;15.810;2024-03-17T08:23:33;5.18;;;2.40;;
86137;SDS011;76796;49.056;15.810;2024-03-17T08:26:03;6.35;;;2.40;;
86137;SDS011;76796;49.056;15.810;2024-03-17T08:28:30;3.88;;;2.35;;
86137;SDS011;76796;49.056;15.810;2024-03-17T08:30:57;3.70;;;2.20;;
86137;SDS011;76796;49.056;15.810;2024-03-17T08:33:23;3.92;;;2.13;;
86137;SDS011;76796;49.056;15.810;2024-03-17T08:38:26;4.68;;;2.30;;
86137;SDS011;76796;49.056;15.810;2024-03-17T08:41:06;3.10;;;2.13;;
86137;SDS011;76796;49.056;15.810;2024-03-17T08:43:36;4.38;;;2.33;;
86137;SDS011;76796;49.056;15.810;2024-03-17T08:46:06;5.72;;;2.45;;
86137;SDS011;76796;49.056;15.810;2024-03-17T08:48:47;5.30;;;2.60;;
86137;SDS011;76796;49.056;15.810;2024-03-17T08:51:13;6.95;;;2.60;;
86137;SDS011;76796;49.056;15.810;2024-03-17T08:53:39;10.85;;;5.05;;
86137;SDS011;76796;49.056;15.810;2024-03-17T08:56:12;4.78;;;2.10;;
86137;SDS011;76796;49.056;15.810;2024-03-17T08:58:38;3.25;;;2.25;;
86137;SDS011;76796;49.056;15.810;2024-03-17T09:01:07;4.45;;;2.30;;
86137;SDS011;76796;49.056;15.810;2024-03-17T09:03:34;5.20;;;2.38;;
86137;SDS011;76796;49.056;15.810;2024-03-17T09:06:01;2.28;;;1.80;;
86137;SDS011;76796;49.056;15.810;2024-03-17T09:10:55;4.85;;;2.58;;
86137;SDS011;76796;49.056;15.810;2024-03-17T09:13:29;4.97;;;2.05;;
86137;SDS011;76796;49.056;15.810;2024-03-17T09:15:56;5.18;;;2.58;;
86137;SDS011;76796;49.056;15.810;2024-03-17T09:18:25;3.78;;;1.90;;
86137;SDS011;76796;49.056;15.810;2024-03-17T09:23:21;2.92;;;2.20;;
86137;SDS011;76796;49.056;15.810;2024-03-17T09:25:54;7.40;;;3.13;;
86137;SDS011;76796;49.056;15.810;2024-03-17T09:28:21;4.13;;;2.38;;
86137;SDS011;76796;49.056;15.810;2024-03-17T09:30:55;5.22;;;2.65;;
86137;SDS011;76796;49.056;15.810;2024-03-17T09:33:22;3.10;;;2.55;;
86137;SDS011;76796;49.056;15.810;2024-03-17T09:35:55;4.15;;;2.47;;
86137;SDS011;76796;49.056;15.810;2024-03-17T09:38:22;4.80;;;2.60;;
86137;SDS011;76796;49.056;15.810;2024-03-17T09:40:48;4.10;;;2.45;;
86137;SDS011;76796;49.056;15.810;2024-03-17T09:43:21;7.32;;;2.90;;
86137;SDS011;76796;49.056;15.810;2024-03-17T09:45:49;3.88;;;2.47;;
86137;SDS011;76796;49.056;15.810;2024-03-17T09:48:22;6.32;;;2.60;;
86137;SDS011;76796;49.056;15.810;2024-03-17T09:50:58;3.22;;;2.60;;
86137;SDS011;76796;49.056;15.810;2024-03-17T09:53:30;6.85;;;2.03;;
86137;SDS011;76796;49.056;15.810;2024-03-17T09:56:01;5.80;;;3.05;;
86137;SDS011;76796;49.056;15.810;2024-03-17T09:58:34;4.25;;;2.78;;
86137;SDS011;76796;49.056;15.810;2024-03-17T10:01:00;10.18;;;4.43;;
86137;SDS011;76796;49.056;15.810;2024-03-17T10:06:08;4.00;;;2.63;;
86137;SDS011;76796;49.056;15.810;2024-03-17T10:08:44;3.53;;;2.30;;
86137;SDS011;76796;49.056;15.810;2024-03-17T10:11:16;3.75;;;2.60;;
86137;SDS011;76796;49.056;15.810;2024-03-17T10:13:43;7.15;;;2.60;;
86137;SDS011;76796;49.056;15.810;2024-03-17T10:16:27;4.35;;;2.05;;
86137;SDS011;76796;49.056;15.810;2024-03-17T10:19:16;6.30;;;3.00;;
86137;SDS011;76796;49.056;15.810;2024-03-17T10:21:58;4.88;;;2.65;;
86137;SDS011;76796;49.056;15.810;2024-03-17T10:24:32;5.28;;;2.63;;
86137;SDS011;76796;49.056;15.810;2024-03-17T10:27:02;4.82;;;2.45;;
86137;SDS011;76796;49.056;15.810;2024-03-17T10:29:31;4.00;;;2.30;;
86137;SDS011;76796;49.056;15.810;2024-03-17T10:32:14;4.80;;;2.40;;
86137;SDS011;76796;49.056;15.810;2024-03-17T10:34:50;4.10;;;2.58;;
86137;SDS011;76796;49.056;15.810;2024-03-17T10:37:17;4.25;;;2.35;;
86137;SDS011;76796;49.056;15.810;2024-03-17T10:39:53;5.70;;;2.28;;
86137;SDS011;76796;49.056;15.810;2024-03-17T10:42:27;3.08;;;2.40;;
86137;SDS011;76796;49.056;15.810;2024-03-17T10:44:54;3.50;;;2.28;;
86137;SDS011;76796;49.056;15.810;2024-03-17T10:47:28;3.45;;;1.98;;
86137;SDS011;76796;49.056;15.810;2024-03-17T10:50:12;4.15;;;2.00;;
86137;SDS011;76796;49.056;15.810;2024-03-17T10:52:44;3.92;;;2.00;;
86137;SDS011;76796;49.056;15.810;2024-03-17T10:55:20;5.55;;;1.80;;
86137;SDS011;76796;49.056;15.810;2024-03-17T10:57:46;3.70;;;2.10;;
86137;SDS011;76796;49.056;15.810;2024-03-17T11:00:16;3.80;;;1.60;;
86137;SDS011;76796;49.056;15.810;2024-03-17T11:02:45;3.85;;;2.28;;
86137;SDS011;76796;49.056;15.810;2024-03-17T11:05:26;4.63;;;2.20;;
86137;SDS011;76796;49.056;15.810;2024-03-17T11:07:59;4.07;;;2.10;;
86137;SDS011;76796;49.056;15.810;2024-03-17T11:10:31;4.20;;;2.50;;
86137;SDS011;76796;49.056;15.810;2024-03-17T11:13:00;4.70;;;2.42;;
86137;SDS011;76796;49.056;15.810;2024-03-17T11:20:42;4.68;;;2.47;;
86137;SDS011;76796;49.056;15.810;2024-03-17T11:23:09;3.30;;;1.90;;
86137;SDS011;76796;49.056;15.810;2024-03-17T11:28:01;3.25;;;2.25;;
86137;SDS011;76796;49.056;15.810;2024-03-17T11:46:56;5.07;;;2.00;;
86137;SDS011;76796;49.056;15.810;2024-03-17T11:49:43;3.30;;;2.00;;
86137;SDS011;76796;49.056;15.810;2024-03-17T11:52:23;5.10;;;1.95;;
86137;SDS011;76796;49.056;15.810;2024-03-17T11:54:58;4.68;;;2.10;;
86137;SDS011;76796;49.056;15.810;2024-03-17T11:57:31;3.97;;;2.05;;
86137;SDS011;76796;49.056;15.810;2024-03-17T11:59:58;4.57;;;2.70;;
86137;SDS011;76796;49.056;15.810;2024-03-17T12:02:29;4.53;;;2.03;;
86137;SDS011;76796;49.056;15.810;2024-03-17T12:04:57;4.40;;;2.28;;
86137;SDS011;76796;49.056;15.810;2024-03-17T12:07:33;4.28;;;1.92;;
86137;SDS011;76796;49.056;15.810;2024-03-17T12:10:09;3.78;;;2.10;;
86137;SDS011;76796;49.056;15.810;2024-03-17T12:12:41;3.38;;;1.80;;
86137;SDS011;76796;49.056;15.810;2024-03-17T12:15:17;4.15;;;1.77;;
86137;SDS011;76796;49.056;15.810;2024-03-17T12:17:51;2.17;;;1.40;;
86137;SDS011;76796;49.056;15.810;2024-03-17T12:20:20;2.97;;;1.65;;
86137;SDS011;76796;49.056;15.810;2024-03-17T12:22:53;1.98;;;1.48;;
86137;SDS011;76796;49.056;15.810;2024-03-17T12:25:20;4.50;;;2.20;;
86137;SDS011;76796;49.056;15.810;2024-03-17T12:27:48;2.92;;;1.88;;
86137;SDS011;76796;49.056;15.810;2024-03-17T12:30:14;2.90;;;1.52;;
86137;SDS011;76796;49.056;15.810;2024-03-17T12:32:42;3.53;;;1.85;;
86137;SDS011;76796;49.056;15.810;2024-03-17T12:35:13;3.25;;;1.60;;
86137;SDS011;76796;49.056;15.810;2024-03-17T12:40:21;3.38;;;1.73;;
86137;SDS011;76796;49.056;15.810;2024-03-17T12:42:49;2.55;;;1.52;;
86137;SDS011;76796;49.056;15.810;2024-03-17T12:45:25;3.63;;;1.90;;
86137;SDS011;76796;49.056;15.810;2024-03-17T12:47:55;5.18;;;1.50;;
86137;SDS011;76796;49.056;15.810;2024-03-17T12:50:30;3.35;;;1.73;;
86137;SDS011;76796;49.056;15.810;2024-03-17T12:53:15;3.15;;;1.80;;
86137;SDS011;76796;49.056;15.810;2024-03-17T12:55:55;2.28;;;1.60;;
86137;SDS011;76796;49.056;15.810;2024-03-17T12:58:42;5.47;;;1.85;;
86137;SDS011;76796;49.056;15.810;2024-03-17T13:01:26;3.15;;;1.80;;
86137;SDS011;76796;49.056;15.810;2024-03-17T13:03:53;3.95;;;1.90;;
86137;SDS011;76796;49.056;15.810;2024-03-17T13:06:22;4.00;;;1.67;;
86137;SDS011;76796;49.056;15.810;2024-03-17T13:08:52;3.67;;;1.60;;
86137;SDS011;76796;49.056;15.810;2024-03-17T13:11:24;3.10;;;1.70;;
86137;SDS011;76796;49.056;15.810;2024-03-17T13:13:50;7.43;;;1.92;;
86137;SDS011;76796;49.056;15.810;2024-03-17T13:16:15;3.30;;;1.85;;
86137;SDS011;76796;49.056;15.810;2024-03-17T13:18:45;3.05;;;1.52;;
86137;SDS011;76796;49.056;15.810;2024-03-17T13:21:11;5.15;;;1.83;;
86137;SDS011;76796;49.056;15.810;2024-03-17T13:23:36;5.85;;;1.80;;
86137;SDS011;76796;49.056;15.810;2024-03-17T13:26:02;3.10;;;1.63;;
86137;SDS011;76796;49.056;15.810;2024-03-17T13:28:34;3.58;;;1.50;;
86137;SDS011;76796;49.056;15.810;2024-03-17T13:31:00;2.50;;;1.33;;
86137;SDS011;76796;49.056;15.810;2024-03-17T13:33:26;2.30;;;1.50;;
86137;SDS011;76796;49.056;15.810;2024-03-17T13:35:52;1.83;;;1.30;;
86137;SDS011;76796;49.056;15.810;2024-03-17T13:38:18;2.50;;;1.42;;
86137;SDS011;76796;49.056;15.810;2024-03-17T13:40:50;2.80;;;1.85;;
86137;SDS011;76796;49.056;15.810;2024-03-17T13:43:16;1.90;;;1.20;;
86137;SDS011;76796;49.056;15.810;2024-03-17T13:45:49;3.88;;;1.95;;
86137;SDS011;76796;49.056;15.810;2024-03-17T13:48:22;2.70;;;1.73;;
86137;SDS011;76796;49.056;15.810;2024-03-17T13:50:49;5.57;;;1.63;;
86137;SDS011;76796;49.056;15.810;2024-03-17T13:53:15;4.45;;;1.65;;
86137;SDS011;76796;49.056;15.810;2024-03-17T13:58:08;3.80;;;1.55;;
86137;SDS011;76796;49.056;15.810;2024-03-17T14:00:35;2.33;;;1.48;;
86137;SDS011;76796;49.056;15.810;2024-03-17T14:03:09;3.63;;;1.67;;
86137;SDS011;76796;49.056;15.810;2024-03-17T14:05:35;3.45;;;1.70;;
86137;SDS011;76796;49.056;15.810;2024-03-17T14:08:01;3.95;;;1.77;;
86137;SDS011;76796;49.056;15.810;2024-03-17T14:13:04;3.53;;;1.35;;
86137;SDS011;76796;49.056;15.810;2024-03-17T14:15:35;4.10;;;1.70;;
86137;SDS011;76796;49.056;15.810;2024-03-17T14:18:02;4.07;;;1.70;;
86137;SDS011;76796;49.056;15.810;2024-03-17T14:20:34;3.13;;;1.70;;
86137;SDS011;76796;49.056;15.810;2024-03-17T14:23:02;2.97;;;1.40;;
86137;SDS011;76796;49.056;15.810;2024-03-17T14:25:29;3.70;;;1.27;;
86137;SDS011;76796;49.056;15.810;2024-03-17T14:27:55;6.20;;;1.65;;
86137;SDS011;76796;49.056;15.810;2024-03-17T14:30:22;2.92;;;1.30;;
86137;SDS011;76796;49.056;15.810;2024-03-17T14:32:49;4.30;;;1.65;;
86137;SDS011;76796;49.056;15.810;2024-03-17T14:35:16;1.95;;;1.10;;
86137;SDS011;76796;49.056;15.810;2024-03-17T14:37:53;3.22;;;1.30;;
86137;SDS011;76796;49.056;15.810;2024-03-17T14:40:22;3.95;;;1.77;;
86137;SDS011;76796;49.056;15.810;2024-03-17T14:42:54;3.78;;;1.70;;
86137;SDS011;76796;49.056;15.810;2024-03-17T14:45:25;3.65;;;1.17;;
86137;SDS011;76796;49.056;15.810;2024-03-17T14:47:51;3.60;;;1.90;;
86137;SDS011;76796;49.056;15.810;2024-03-17T14:50:30;3.75;;;1.63;;
86137;SDS011;76796;49.056;15.810;2024-03-17T14:53:03;1.70;;;1.27;;
86137;SDS011;76796;49.056;15.810;2024-03-17T14:55:30;3.83;;;1.75;;
86137;SDS011;76796;49.056;15.810;2024-03-17T14:57:56;3.83;;;2.15;;
86137;SDS011;76796;49.056;15.810;2024-03-17T15:00:22;3.05;;;1.38;;
86137;SDS011;76796;49.056;15.810;2024-03-17T15:02:51;3.10;;;1.30;;
86137;SDS011;76796;49.056;15.810;2024-03-17T15:05:18;2.38;;;1.38;;
86137;SDS011;76796;49.056;15.810;2024-03-17T15:07:51;2.03;;;1.38;;
86137;SDS011;76796;49.056;15.810;2024-03-17T15:10:23;3.17;;;1.67;;
86137;SDS011;76796;49.056;15.810;2024-03-17T15:12:50;3.90;;;1.70;;
86137;SDS011;76796;49.056;15.810;2024-03-17T15:15:16;3.78;;;1.80;;
86137;SDS011;76796;49.056;15.810;2024-03-17T15:17:42;3.03;;;1.30;;
86137;SDS011;76796;49.056;15.810;2024-03-17T15:20:12;3.40;;;1.20;;
86137;SDS011;76796;49.056;15.810;2024-03-17T15:22:47;3.40;;;2.17;;
86137;SDS011;76796;49.056;15.810;2024-03-17T15:25:16;4.25;;;1.38;;
86137;SDS011;76796;49.056;15.810;2024-03-17T15:27:49;3.05;;;1.88;;
86137;SDS011;76796;49.056;15.810;2024-03-17T15:30:16;3.00;;;1.30;;
86137;SDS011;76796;49.056;15.810;2024-03-17T15:32:47;1.83;;;1.33;;